Forest City, NC

11:22 AM EST on December 09, 2016 (GMT -0500)
Forest City-Dunbar Elementary | | Change Station

Elev 966 ft 35.35 °N, 81.87 °W | Updated 7 minutes ago

Clear
Clear
35.1 °F
Feels Like 31 °F
N
5.0
Wind Variable Wind from NW
Gusts 10.0 mph

Today
High -- | Low -- °F
--% Chance of Precip.
Yesterday
High -- | Low -- °F
Precip. -- in
Pressure 30.44 in
Visibility 10.0 miles
Clouds Clear
Windchill 31 °F
Dew Point 18 °F
Humidity 49%
Rainfall 0.00 in
Snow Depth Not available.
7:25 AM 5:15 PM
Waxing Gibbous, 75% visible
METAR KFQD 091605Z AUTO 02003KT 10SM CLR 02/M10 A3044 RMK AO2 T00241100
Pressure 30.44 in
Visibility 10.0 miles
Clouds Clear
Windchill 31 °F
Dew Point 18 °F
Humidity 49%
Rainfall 0.00 in
Snow Depth Not available.
7:25 AM 5:15 PM
Waxing Gibbous, 75% visible
METAR KFQD 091605Z AUTO 02003KT 10SM CLR 02/M10 A3044 RMK AO2 T00241100

10-Day Weather Forecast

Almanac

Astronomy

Dec. 09, 2016 Rise Set
Actual Time
Civil Twilight
Nautical Twilight
Astronomical Twilight
Moon
Length of Visible Light
Length of Day
Tomorrow will be .
, % of the Moon is Illuminated

Today's Extremes

State Highs State Lows

Community

WunderPhotos

Upload Photos

1,956,462 photos uploaded!

WunderBlog® & News

Nearby

Air Quality

  Air Quality AQ Index Pollutant
Not available.

Snow Depth

Station Depth Elevation

Earthquake Activity

City Distance Mag. Time & Date
Minimum magnitude displayed is 2.5.

Coastal Water Temperatures

Place Temperature

Stations

Nearby Weather Stations

Station Location Temp. Windchill Dew Point Humidity Wind Precip. Elev Updated Type
                   

Watches & Warnings

There are currently no watches in effect.